createdAt,value
2022-11-05T00:00:37.034Z,916.38
2022-11-05T00:01:37.080Z,916.54
2022-11-05T00:02:37.010Z,916.49
2022-11-05T00:03:37.080Z,916.9
2022-11-05T00:04:37.012Z,916.89
2022-11-05T00:05:37.017Z,916.78
2022-11-05T00:06:37.040Z,916.17
2022-11-05T00:07:37.019Z,916.57
2022-11-05T00:08:37.020Z,916.09
2022-11-05T00:09:37.021Z,915.73
2022-11-05T00:10:37.037Z,915.42
2022-11-05T00:11:37.027Z,914.86
2022-11-05T00:12:37.083Z,914.79
2022-11-05T00:13:37.027Z,914.68
2022-11-05T00:14:37.031Z,913.98
2022-11-05T00:15:37.035Z,913.73
2022-11-05T00:16:37.040Z,912.96
2022-11-05T00:17:37.053Z,912.51
2022-11-05T00:18:37.037Z,912.4
2022-11-05T00:19:37.042Z,911.97
2022-11-05T00:20:37.040Z,911.56
2022-11-05T00:21:37.058Z,911.22
2022-11-05T00:22:37.068Z,911.84
2022-11-05T00:23:37.041Z,911.28
2022-11-05T00:24:37.047Z,911.45
2022-11-05T00:25:37.049Z,911.46
2022-11-05T00:26:37.045Z,910.85
2022-11-05T00:27:37.052Z,910.81
2022-11-05T00:28:37.067Z,911.22
2022-11-05T00:29:37.053Z,911.46
2022-11-05T00:30:37.063Z,910.86
2022-11-05T00:31:37.055Z,911.05
2022-11-05T00:32:37.057Z,910.83
2022-11-05T00:33:37.057Z,910.79
2022-11-05T00:34:37.064Z,910.82
2022-11-05T00:35:37.064Z,911.06
2022-11-05T00:36:37.066Z,910.75
2022-11-05T00:37:37.063Z,910.59
2022-11-05T00:38:37.089Z,910.52
2022-11-05T00:39:37.069Z,910.54
2022-11-05T00:40:37.068Z,910.17
2022-11-05T00:41:37.073Z,910.18
2022-11-05T00:42:37.076Z,910.06
2022-11-05T00:43:37.094Z,910.44
2022-11-05T00:44:37.078Z,910.33
2022-11-05T00:45:37.077Z,910.51
2022-11-05T00:46:37.080Z,910.23
2022-11-05T00:47:37.083Z,910.16
2022-11-05T00:48:37.112Z,910.65
2022-11-05T00:49:37.085Z,910.13
2022-11-05T00:50:37.094Z,910.89
2022-11-05T00:51:37.087Z,910.39
2022-11-05T00:52:37.091Z,910.38
2022-11-05T00:53:37.124Z,910.86
2022-11-05T00:54:37.122Z,911
2022-11-05T00:55:37.092Z,910.54
2022-11-05T00:56:37.094Z,910.45
2022-11-05T00:57:37.100Z,910.71
2022-11-05T00:58:37.123Z,910.24
2022-11-05T00:59:37.099Z,910.34
2022-11-05T01:00:37.099Z,910.44
2022-11-05T01:01:37.230Z,910.28
2022-11-05T01:02:37.197Z,910.17
2022-11-05T01:03:37.133Z,910.21
2022-11-05T01:04:37.109Z,910.35
2022-11-05T01:05:37.109Z,910.49
2022-11-05T01:06:37.108Z,910.31
2022-11-05T01:07:37.109Z,910.25
2022-11-05T01:08:37.148Z,910.27
2022-11-05T01:09:37.116Z,910.11
2022-11-05T01:10:37.139Z,910.52
2022-11-05T01:11:37.399Z,910.67
2022-11-05T01:12:37.121Z,910.38
2022-11-05T01:13:37.141Z,910.32
2022-11-05T01:14:37.128Z,909.56
2022-11-05T01:15:37.124Z,909.48
2022-11-05T01:16:37.126Z,909
2022-11-05T01:17:37.125Z,908.98
2022-11-05T01:18:37.152Z,908.16
2022-11-05T01:19:37.129Z,908.63
2022-11-05T01:20:37.132Z,908.3
2022-11-05T01:21:37.136Z,908.12
2022-11-05T01:22:37.135Z,907.91
2022-11-05T01:23:37.160Z,907.8
2022-11-05T01:24:37.136Z,907.4
2022-11-05T01:25:37.143Z,907.82
2022-11-05T01:29:38.137Z,908.37
2022-11-05T01:30:37.151Z,908.58
2022-11-05T01:31:37.157Z,908.66
2022-11-05T01:32:37.149Z,908.45
2022-11-05T01:33:37.149Z,908.72
2022-11-05T01:34:37.157Z,908.77
2022-11-05T01:35:37.174Z,909.01
2022-11-05T01:36:37.156Z,909.29
2022-11-05T01:37:37.155Z,909.32
2022-11-05T01:38:37.159Z,910.15
2022-11-05T01:39:37.159Z,909.69
2022-11-05T01:40:37.164Z,910.27
2022-11-05T01:41:37.164Z,910.64
2022-11-05T01:42:37.168Z,910.56
2022-11-05T01:43:37.168Z,910.68
2022-11-05T01:44:37.167Z,910.39
2022-11-05T01:45:37.294Z,910.87
2022-11-05T01:46:39.937Z,910.73
2022-11-05T01:47:37.177Z,910.47
2022-11-05T01:48:37.176Z,910.87
2022-11-05T01:49:37.179Z,911.22
2022-11-05T01:50:37.185Z,910.83
2022-11-05T01:51:37.187Z,910.53
2022-11-05T01:52:37.183Z,910.33
2022-11-05T01:53:37.181Z,910.38
2022-11-05T01:54:37.188Z,910
2022-11-05T01:55:37.189Z,909.66
2022-11-05T01:56:37.186Z,908.97
2022-11-05T01:57:39.959Z,908.47
2022-11-05T01:58:37.188Z,907.9
2022-11-05T01:59:37.192Z,907.18
2022-11-05T02:00:37.192Z,906.15
2022-11-05T02:01:37.396Z,906.03
2022-11-05T02:02:37.341Z,905.05
2022-11-05T02:03:37.196Z,905.18
2022-11-05T02:04:37.209Z,904.66
2022-11-05T02:05:37.202Z,904.66
2022-11-05T02:06:37.202Z,904.78
2022-11-05T02:07:37.250Z,905.15
2022-11-05T02:08:40.267Z,905.15
2022-11-05T02:09:37.210Z,905.38
2022-11-05T02:10:37.208Z,905.82
2022-11-05T02:11:37.211Z,905.67
2022-11-05T02:12:37.212Z,905.68
2022-11-05T02:13:37.213Z,906.08
2022-11-05T02:14:37.218Z,906.36
2022-11-05T02:15:37.217Z,906.12
2022-11-05T02:16:37.220Z,906.9
2022-11-05T02:17:37.247Z,907.14
2022-11-05T02:18:37.222Z,907.54
2022-11-05T02:19:40.176Z,907.67
2022-11-05T02:20:37.223Z,908.28
2022-11-05T02:21:37.230Z,907.9
2022-11-05T02:22:37.228Z,908.35
2022-11-05T02:23:37.230Z,908.47
2022-11-05T02:24:37.233Z,909.08
2022-11-05T02:25:37.237Z,909.49
2022-11-05T02:26:37.235Z,909.77
2022-11-05T02:27:37.237Z,909.69
2022-11-05T02:28:37.239Z,910.28
2022-11-05T02:29:37.240Z,910.83
2022-11-05T02:30:37.241Z,910.96
2022-11-05T02:31:37.243Z,910.65
2022-11-05T02:32:37.242Z,911.21
2022-11-05T02:33:37.270Z,911.06
2022-11-05T02:34:37.252Z,910.77
2022-11-05T02:35:37.251Z,910.66
2022-11-05T02:36:37.253Z,910.67
2022-11-05T02:37:37.252Z,910.8
2022-11-05T02:38:37.252Z,911.24
2022-11-05T02:39:37.255Z,911.23
2022-11-05T02:40:37.258Z,911.06
2022-11-05T02:41:37.258Z,911.08
2022-11-05T02:42:37.261Z,910.9
2022-11-05T02:43:37.269Z,910.61
2022-11-05T02:44:37.262Z,910.2
2022-11-05T02:45:37.267Z,910.35
2022-11-05T02:46:37.267Z,911.02
2022-11-05T02:47:37.269Z,911.25
2022-11-05T02:48:37.269Z,911.27
2022-11-05T02:49:37.382Z,911.84
2022-11-05T02:50:37.291Z,911.99
2022-11-05T02:51:37.272Z,912.12
2022-11-05T02:52:37.273Z,912.86
2022-11-05T02:53:37.281Z,913.17
2022-11-05T02:54:37.275Z,913.94
2022-11-05T02:55:37.280Z,914.12
2022-11-05T02:56:37.280Z,914.33
2022-11-05T02:57:37.283Z,914.88
2022-11-05T02:58:37.283Z,914.8
2022-11-05T02:59:37.284Z,915.39
2022-11-05T03:00:37.284Z,915.39
2022-11-05T03:01:37.397Z,915.45
2022-11-05T03:02:37.499Z,915.53
2022-11-05T03:03:37.293Z,915.73
2022-11-05T03:04:37.292Z,915.42
2022-11-05T03:05:37.318Z,915.4
2022-11-05T03:06:37.299Z,915.2
2022-11-05T03:07:37.298Z,915.22
2022-11-05T03:08:37.296Z,915.08
2022-11-05T03:09:37.301Z,915.24
2022-11-05T03:10:37.309Z,914.66
2022-11-05T03:11:37.308Z,915.2
2022-11-05T03:12:37.307Z,914.52
2022-11-05T03:13:37.315Z,914.86
2022-11-05T03:14:37.306Z,915.04
2022-11-05T03:15:37.309Z,914.99
2022-11-05T03:16:37.316Z,914.77
2022-11-05T03:17:37.317Z,914.87
2022-11-05T03:18:37.314Z,915.04
2022-11-05T03:19:37.316Z,915.5
2022-11-05T03:20:37.327Z,915.75
2022-11-05T03:21:37.345Z,915.39
2022-11-05T03:22:37.320Z,915.97
2022-11-05T03:23:37.323Z,916.45
2022-11-05T03:24:37.322Z,916.36
2022-11-05T03:25:37.329Z,916.49
2022-11-05T03:26:37.331Z,916.51
2022-11-05T03:27:37.331Z,916.5
2022-11-05T03:28:37.335Z,916.5
2022-11-05T03:29:37.329Z,916.58
2022-11-05T03:30:37.362Z,916.52
2022-11-05T03:31:37.340Z,916.88
2022-11-05T03:32:37.335Z,917.4
2022-11-05T03:33:37.343Z,917.08
2022-11-05T03:34:37.341Z,917.32
2022-11-05T03:35:37.369Z,917.74
2022-11-05T03:36:37.349Z,918.6
2022-11-05T03:37:37.370Z,918.33
2022-11-05T03:38:37.346Z,918.26
2022-11-05T03:39:37.349Z,918.65
2022-11-05T03:40:37.382Z,917.96
2022-11-05T03:41:37.358Z,918
2022-11-05T03:42:37.355Z,918
2022-11-05T03:43:37.356Z,917.86
2022-11-05T03:44:37.358Z,917.89
2022-11-05T03:45:37.376Z,917.97
2022-11-05T03:46:37.391Z,917.92
2022-11-05T03:47:37.362Z,917.9
2022-11-05T03:48:37.435Z,918.18
2022-11-05T03:49:37.370Z,918.01
2022-11-05T03:50:41.204Z,918.07
2022-11-05T03:51:37.381Z,918.09
2022-11-05T03:52:37.369Z,918.23
2022-11-05T03:53:37.394Z,917.98
2022-11-05T03:54:37.370Z,917.8
2022-11-05T03:55:37.400Z,918
2022-11-05T03:56:37.373Z,917.45
2022-11-05T03:57:37.381Z,917.04
2022-11-05T03:58:37.378Z,917.19
2022-11-05T03:59:37.383Z,916.88
2022-11-05T04:00:37.398Z,917.05
2022-11-05T04:01:37.488Z,917.03
2022-11-05T04:02:37.540Z,917.19
2022-11-05T04:03:37.387Z,917.26
2022-11-05T04:04:37.385Z,917.31
2022-11-05T04:05:37.411Z,917.13
2022-11-05T04:06:37.390Z,917.67
2022-11-05T04:07:37.396Z,917.82
2022-11-05T04:08:37.393Z,917.87
2022-11-05T04:09:37.420Z,917.8
2022-11-05T04:10:37.416Z,918.62
2022-11-05T04:11:37.427Z,918.33
2022-11-05T04:12:37.401Z,918.23
2022-11-05T04:13:40.232Z,918.2
2022-11-05T04:14:37.405Z,918.05
2022-11-05T04:15:37.457Z,918.17
2022-11-05T04:16:37.420Z,918.53
2022-11-05T04:17:37.412Z,918.42
2022-11-05T04:18:37.413Z,918.06
2022-11-05T04:19:37.410Z,918.01
2022-11-05T04:20:37.431Z,918.03
2022-11-05T04:21:37.428Z,917.74
2022-11-05T04:22:37.413Z,917.67
2022-11-05T04:23:37.460Z,917.6
2022-11-05T04:24:40.542Z,917.18
2022-11-05T04:25:37.440Z,916.58
2022-11-05T04:26:37.433Z,916.41
2022-11-05T04:27:37.427Z,916.27
2022-11-05T04:28:37.420Z,915.72
2022-11-05T04:29:37.424Z,915.27
2022-11-05T04:30:37.452Z,915.19
2022-11-05T04:31:37.442Z,914.77
2022-11-05T04:32:37.432Z,914.8
2022-11-05T04:33:37.432Z,914.3
2022-11-05T04:34:37.435Z,914.2
2022-11-05T04:35:39.204Z,913.76
2022-11-05T04:36:37.441Z,913.07
2022-11-05T04:37:37.443Z,912.43
2022-11-05T04:38:37.441Z,912.24
2022-11-05T04:39:37.442Z,911.18
2022-11-05T04:40:37.472Z,910.25
2022-11-05T04:41:37.468Z,909.27
2022-11-05T04:42:37.444Z,908.92
2022-11-05T04:43:37.449Z,908.31
2022-11-05T04:44:37.452Z,907.66
2022-11-05T04:45:37.452Z,907.05
2022-11-05T04:46:40.222Z,906.37
2022-11-05T04:47:37.461Z,905.98
2022-11-05T04:48:37.455Z,906.09
2022-11-05T04:49:37.456Z,906.63
2022-11-05T04:50:37.461Z,906.36
2022-11-05T04:51:37.468Z,906.54
2022-11-05T04:52:37.469Z,906.68
2022-11-05T04:53:37.467Z,906.27
2022-11-05T04:54:37.462Z,906.68
2022-11-05T04:55:37.468Z,906.99
2022-11-05T04:56:37.490Z,906.62
2022-11-05T04:57:37.469Z,907.16
2022-11-05T04:58:37.470Z,906.56
2022-11-05T04:59:37.480Z,906.27
2022-11-05T05:00:37.594Z,906.03
2022-11-05T05:01:37.586Z,905.97
2022-11-05T05:02:37.481Z,906.08
2022-11-05T05:03:37.475Z,906.46
2022-11-05T05:04:37.485Z,906.98
2022-11-05T05:05:37.489Z,906.96
2022-11-05T05:06:37.496Z,907.03
2022-11-05T05:07:37.481Z,907.19
2022-11-05T05:08:37.490Z,907.68
2022-11-05T05:09:37.486Z,906.98
2022-11-05T05:10:37.495Z,906.73
2022-11-05T05:11:37.490Z,906.26
2022-11-05T05:12:37.517Z,905.43
2022-11-05T05:13:37.490Z,904.71
2022-11-05T05:14:37.497Z,905.11
2022-11-05T05:15:37.496Z,904.61
2022-11-05T05:16:37.531Z,904.74
2022-11-05T05:17:37.501Z,905.31
2022-11-05T05:18:39.844Z,905.54
2022-11-05T05:19:37.506Z,905.68
2022-11-05T05:20:37.503Z,905.57
2022-11-05T05:21:37.508Z,906.24
2022-11-05T05:22:37.510Z,906.32
2022-11-05T05:23:37.509Z,906.08
2022-11-05T05:24:37.513Z,905.99
2022-11-05T05:25:37.517Z,906.18
2022-11-05T05:26:37.517Z,906.53
2022-11-05T05:27:37.517Z,906.67
2022-11-05T05:28:37.539Z,906.37
2022-11-05T05:29:37.516Z,906.63
2022-11-05T05:30:37.523Z,906.1
2022-11-05T05:31:37.525Z,906.16
2022-11-05T05:32:37.521Z,905.97
2022-11-05T05:33:37.529Z,905.85
2022-11-05T05:34:37.548Z,906.44
2022-11-05T05:35:37.530Z,906.35
2022-11-05T05:36:37.534Z,906.22
2022-11-05T05:37:37.531Z,906.25
2022-11-05T05:38:37.533Z,906.4
2022-11-05T05:39:37.535Z,906.2
2022-11-05T05:40:37.537Z,906.27
2022-11-05T05:41:37.537Z,905.61
2022-11-05T05:42:41.867Z,905.79
2022-11-05T05:43:37.632Z,905.04
2022-11-05T05:44:37.561Z,905.09
2022-11-05T05:45:37.544Z,904.98
2022-11-05T05:46:37.555Z,905.04
2022-11-05T05:47:37.566Z,905.01
2022-11-05T05:48:37.578Z,905.5
2022-11-05T05:49:37.553Z,905.68
2022-11-05T05:50:37.567Z,905.5
2022-11-05T05:51:37.554Z,905.8
2022-11-05T05:52:37.556Z,906.14
2022-11-05T05:53:37.558Z,905.95
2022-11-05T05:54:42.394Z,906.44
2022-11-05T05:55:37.582Z,907.07
2022-11-05T05:56:37.565Z,906.61
2022-11-05T05:57:37.564Z,907.09
2022-11-05T05:58:37.563Z,907.3
2022-11-05T05:59:37.573Z,908.07
2022-11-05T06:00:37.592Z,907.86
2022-11-05T06:01:37.697Z,907.99
2022-11-05T06:02:37.735Z,908.49
2022-11-05T06:03:37.568Z,908.58
2022-11-05T06:04:37.572Z,908.8
2022-11-05T06:05:37.584Z,909.37
2022-11-05T06:06:37.579Z,908.95
2022-11-05T06:07:37.776Z,909.2
2022-11-05T06:08:37.579Z,909.2
2022-11-05T06:09:37.585Z,909.06
2022-11-05T06:10:37.630Z,909.23
2022-11-05T06:11:37.586Z,909.73
2022-11-05T06:12:37.589Z,910.06
2022-11-05T06:13:37.588Z,910.47
2022-11-05T06:14:37.587Z,910.47
2022-11-05T06:15:37.592Z,910.34
2022-11-05T06:16:37.722Z,911.08
2022-11-05T06:17:37.592Z,911.09
2022-11-05T06:18:37.596Z,911.3
2022-11-05T06:19:37.595Z,911.99
2022-11-05T06:20:37.600Z,911.76
2022-11-05T06:21:37.602Z,911.76
2022-11-05T06:22:37.609Z,911.43
2022-11-05T06:23:37.602Z,912.35
2022-11-05T06:24:37.602Z,912.29
2022-11-05T06:25:41.155Z,912.95
2022-11-05T06:26:37.603Z,912.95
2022-11-05T06:27:37.608Z,913.34
2022-11-05T06:28:37.617Z,913.69
2022-11-05T06:29:37.613Z,913.87
2022-11-05T06:30:37.638Z,913.85
2022-11-05T06:31:37.638Z,914.54
2022-11-05T06:32:37.646Z,914.39
2022-11-05T06:33:37.621Z,915.04
2022-11-05T06:34:37.617Z,915.16
2022-11-05T06:35:37.625Z,915.71
2022-11-05T06:36:37.622Z,916.39
2022-11-05T06:37:37.620Z,916.25
2022-11-05T06:38:37.622Z,916.71
2022-11-05T06:39:37.627Z,917.32
2022-11-05T06:40:40.641Z,917.19
2022-11-05T06:41:50.913Z,917.73
2022-11-05T06:42:37.635Z,917.8
2022-11-05T06:43:37.631Z,917.57
2022-11-05T06:44:37.632Z,917.46
2022-11-05T06:45:37.636Z,918.32
2022-11-05T06:46:37.659Z,918.35
2022-11-05T06:47:37.714Z,918.49
2022-11-05T06:48:37.660Z,918.44
2022-11-05T06:49:37.643Z,919.07
2022-11-05T06:50:37.645Z,919.27
2022-11-05T06:51:39.289Z,919.1
2022-11-05T06:52:41.001Z,919.96
2022-11-05T06:53:37.647Z,919.66
2022-11-05T06:54:37.647Z,919.56
2022-11-05T06:55:37.653Z,919.53
2022-11-05T06:56:37.672Z,919.71
2022-11-05T06:57:37.652Z,919.79
2022-11-05T06:58:37.660Z,920.22
2022-11-05T06:59:37.654Z,920.62
2022-11-05T07:00:37.680Z,921.89
2022-11-05T07:01:37.809Z,922.38
2022-11-05T07:02:40.548Z,923.06
2022-11-05T07:03:37.663Z,923.43
2022-11-05T07:04:37.688Z,924.61
2022-11-05T07:05:37.667Z,924.95
2022-11-05T07:06:37.675Z,924.93
2022-11-05T07:07:37.672Z,925.32
2022-11-05T07:08:37.677Z,925.67
2022-11-05T07:09:37.671Z,925.9
2022-11-05T07:10:37.714Z,926.7
2022-11-05T07:11:37.683Z,928.18
2022-11-05T07:12:37.676Z,929.37
2022-11-05T07:13:40.785Z,930.38
2022-11-05T07:14:37.685Z,931.18
2022-11-05T07:15:37.683Z,932.06
2022-11-05T07:16:37.703Z,932.96
2022-11-05T07:17:37.686Z,933.6
2022-11-05T07:18:37.690Z,934.94
2022-11-05T07:19:37.688Z,935.62
2022-11-05T07:20:37.740Z,936.34
2022-11-05T07:21:37.694Z,936.94
2022-11-05T07:22:37.691Z,937.51
2022-11-05T07:23:37.693Z,937.98
2022-11-05T07:24:37.697Z,938.22
2022-11-05T07:25:37.700Z,939.17
2022-11-05T07:26:37.699Z,939.46
2022-11-05T07:27:37.699Z,939.78
2022-11-05T07:28:37.703Z,940.23
2022-11-05T07:29:37.705Z,940.37
2022-11-05T07:30:37.707Z,940.74
2022-11-05T07:31:37.714Z,941.45
2022-11-05T07:32:37.707Z,941.93
2022-11-05T07:33:37.714Z,942.66
2022-11-05T07:34:37.713Z,942.42
2022-11-05T07:35:37.715Z,943.11
2022-11-05T07:36:37.871Z,943.46
2022-11-05T07:37:37.715Z,943.58
2022-11-05T07:38:37.717Z,944.25
2022-11-05T07:39:37.720Z,944.62
2022-11-05T07:40:37.722Z,945.34
2022-11-05T07:41:37.724Z,946.32
2022-11-05T07:42:37.726Z,946.8
2022-11-05T07:43:37.726Z,947.56
2022-11-05T07:44:37.743Z,947.79
2022-11-05T07:45:37.751Z,947.8
2022-11-05T07:46:37.737Z,948.19
2022-11-05T07:47:37.736Z,948.63
2022-11-05T07:48:37.734Z,949.14
2022-11-05T07:49:37.780Z,949.18
2022-11-05T07:50:37.743Z,949.95
2022-11-05T07:51:37.743Z,950.53
2022-11-05T07:52:37.762Z,951.58
2022-11-05T07:53:41.067Z,952.08
2022-11-05T07:54:37.746Z,953.18
2022-11-05T07:55:37.747Z,953.95
2022-11-05T07:56:37.755Z,954.48
2022-11-05T07:57:37.754Z,955.16
2022-11-05T07:58:37.749Z,956.25
2022-11-05T07:59:37.778Z,956.55
2022-11-05T08:00:37.838Z,956.88
2022-11-05T08:01:37.896Z,957.35
2022-11-05T08:02:37.991Z,958.13
2022-11-05T08:03:37.779Z,959.29
2022-11-05T08:04:37.763Z,960.69
2022-11-05T08:05:37.821Z,962.41
2022-11-05T08:06:37.810Z,964.1
2022-11-05T08:07:37.769Z,966.21
2022-11-05T08:08:37.794Z,967.77
2022-11-05T08:09:37.769Z,969.18
2022-11-05T08:10:37.779Z,971.6
2022-11-05T08:11:37.773Z,973.32
2022-11-05T08:12:37.811Z,975.81
2022-11-05T08:13:37.776Z,978.13
2022-11-05T08:14:37.777Z,980.61
2022-11-05T08:15:37.786Z,982.53
2022-11-05T08:16:37.776Z,983.85
2022-11-05T08:17:37.783Z,985.67
2022-11-05T08:18:37.785Z,987.12
2022-11-05T08:19:37.787Z,988.74
2022-11-05T08:20:37.785Z,990.49
2022-11-05T08:21:37.789Z,992.18
2022-11-05T08:22:37.791Z,994.06
2022-11-05T08:23:37.799Z,995.55
2022-11-05T08:24:37.828Z,996.7
2022-11-05T08:25:37.797Z,997.75
2022-11-05T08:26:37.794Z,998.29
2022-11-05T08:27:37.794Z,998.95
2022-11-05T08:28:37.797Z,999.29
2022-11-05T08:29:37.800Z,999.66
2022-11-05T08:30:37.805Z,999.9
2022-11-05T08:31:37.803Z,999.52
2022-11-05T08:32:37.811Z,999.4
2022-11-05T08:33:37.811Z,999.1
2022-11-05T08:34:37.812Z,998.54
2022-11-05T08:35:37.809Z,998.33
2022-11-05T08:36:37.822Z,997.63
2022-11-05T08:37:37.815Z,997.13
2022-11-05T08:38:37.815Z,996.68
2022-11-05T08:39:37.819Z,995.75
2022-11-05T08:40:37.843Z,994.96
2022-11-05T08:41:37.822Z,994.17
2022-11-05T08:42:37.823Z,993.05
2022-11-05T08:43:37.826Z,992.59
2022-11-05T08:44:37.829Z,992.01
2022-11-05T08:45:38.376Z,991.31
2022-11-05T08:46:41.503Z,990.61
2022-11-05T08:47:37.832Z,990.3
2022-11-05T08:48:37.829Z,989.98
2022-11-05T08:49:37.839Z,989.88
2022-11-05T08:50:37.838Z,989.42
2022-11-05T08:51:37.839Z,989.56
2022-11-05T08:52:37.838Z,988.98
2022-11-05T08:53:37.840Z,989.09
2022-11-05T08:54:37.842Z,988.71
2022-11-05T08:55:37.843Z,989.04
2022-11-05T08:56:37.872Z,988.75
2022-11-05T08:57:37.940Z,988.87
2022-11-05T08:58:37.845Z,988.88
2022-11-05T08:59:37.855Z,988.91
2022-11-05T09:00:37.850Z,989.03
2022-11-05T09:01:37.978Z,988.92
2022-11-05T09:02:37.921Z,988.36
2022-11-05T09:03:37.858Z,987.91
2022-11-05T09:04:37.879Z,987.79
2022-11-05T09:05:37.904Z,987.5
2022-11-05T09:06:37.862Z,987.47
2022-11-05T09:07:38.364Z,987.7
2022-11-05T09:08:37.863Z,987.49
2022-11-05T09:09:37.870Z,987.59
2022-11-05T09:10:37.866Z,987.96
2022-11-05T09:12:05.648Z,988.28
2022-11-05T09:12:37.893Z,988.27
2022-11-05T09:13:37.874Z,989.01
2022-11-05T09:14:37.878Z,989.17
2022-11-05T09:15:37.874Z,989.72
2022-11-05T09:16:37.880Z,990.2
2022-11-05T09:17:37.880Z,991.24
2022-11-05T09:18:40.701Z,991.69
2022-11-05T09:19:39.887Z,993.19
2022-11-05T09:20:37.881Z,994.59
2022-11-05T09:21:37.882Z,996.36
2022-11-05T09:22:42.145Z,997.39
2022-11-05T09:23:37.886Z,998.5
2022-11-05T09:24:37.892Z,999.54
2022-11-05T09:25:37.891Z,1000.89
2022-11-05T09:26:37.899Z,1001.68
2022-11-05T09:27:37.891Z,1003.22
2022-11-05T09:28:37.927Z,1004.47
2022-11-05T09:29:40.660Z,1006.18
2022-11-05T09:30:37.914Z,1007.14
2022-11-05T09:31:37.904Z,1008.09
2022-11-05T09:32:37.904Z,1009.52
2022-11-05T09:33:37.917Z,1010.78
2022-11-05T09:34:37.905Z,1012.26
2022-11-05T09:35:37.908Z,1013.81
2022-11-05T09:36:37.908Z,1014.63
2022-11-05T09:37:37.911Z,1015.32
2022-11-05T09:38:37.911Z,1016.48
2022-11-05T09:39:37.910Z,1017.18
2022-11-05T09:40:40.987Z,1017.97
2022-11-05T09:41:37.915Z,1019.19
2022-11-05T09:42:37.919Z,1020.45
2022-11-05T09:43:37.937Z,1021.25
2022-11-05T09:44:38.285Z,1022.27
2022-11-05T09:45:37.929Z,1023.29
2022-11-05T09:46:37.926Z,1024.3
2022-11-05T09:47:37.924Z,1024.98
2022-11-05T09:48:37.932Z,1025.51
2022-11-05T09:49:37.930Z,1025.3
2022-11-05T09:50:37.936Z,1025.02
2022-11-05T09:51:40.699Z,1025.25
2022-11-05T09:52:37.941Z,1025.05
2022-11-05T09:53:37.937Z,1024.94
2022-11-05T09:54:37.938Z,1025.56
2022-11-05T09:55:37.940Z,1028.38
2022-11-05T09:56:37.945Z,1030.81
2022-11-05T09:57:37.945Z,1032.56
2022-11-05T09:58:37.945Z,1033.75
2022-11-05T09:59:37.944Z,1036.25
2022-11-05T10:00:37.970Z,1036.98
2022-11-05T10:01:38.144Z,1037.08
2022-11-05T10:02:38.072Z,1037.18
2022-11-05T10:03:37.954Z,1037.9
2022-11-05T10:04:37.962Z,1038.77
2022-11-05T10:05:38.001Z,1039.56
2022-11-05T10:06:37.965Z,1039.46
2022-11-05T10:07:37.958Z,1039.74
2022-11-05T10:08:37.995Z,1039.94
2022-11-05T10:09:37.964Z,1040.04
2022-11-05T10:10:40.983Z,1039.82
2022-11-05T10:11:37.982Z,1039.72
2022-11-05T10:12:37.970Z,1039.27
2022-11-05T10:13:37.989Z,1039.09
2022-11-05T10:14:37.973Z,1038.65
2022-11-05T10:15:37.971Z,1038.42
2022-11-05T10:16:37.998Z,1038.73
2022-11-05T10:17:39.272Z,1037.96
2022-11-05T10:18:38.002Z,1037.59
2022-11-05T10:19:37.977Z,1036.99
2022-11-05T10:20:37.979Z,1036.95
2022-11-05T10:22:04.714Z,1036.7
2022-11-05T10:22:37.988Z,1036.44
2022-11-05T10:23:38.009Z,1035.71
2022-11-05T10:24:37.990Z,1035.9
2022-11-05T10:25:37.990Z,1035.69
2022-11-05T10:26:37.992Z,1035.68
2022-11-05T10:27:38.004Z,1035.79
2022-11-05T10:28:38.018Z,1035.77
2022-11-05T10:29:37.994Z,1035.61
2022-11-05T10:30:38.001Z,1035.53
2022-11-05T10:31:37.999Z,1036.14
2022-11-05T10:32:38.139Z,1036.88
2022-11-05T10:33:38.061Z,1037.46
2022-11-05T10:34:38.059Z,1038.23
2022-11-05T10:35:38.003Z,1038.97
2022-11-05T10:36:38.005Z,1039.83
2022-11-05T10:37:40.774Z,1041.26
2022-11-05T10:38:38.029Z,1041.8
2022-11-05T10:39:38.015Z,1043.13
2022-11-05T10:40:38.013Z,1043.83
2022-11-05T10:41:38.017Z,1044.89
2022-11-05T10:42:38.018Z,1045.59
2022-11-05T10:43:38.040Z,1046.15
2022-11-05T10:44:38.020Z,1046.98
2022-11-05T10:45:38.031Z,1047.58
2022-11-05T10:46:38.029Z,1048.18
2022-11-05T10:47:38.027Z,1048.83
2022-11-05T10:48:42.391Z,1049.93
2022-11-05T10:49:38.028Z,1051.07
2022-11-05T10:50:38.040Z,1051.69
2022-11-05T10:51:38.033Z,1052.4
2022-11-05T10:52:38.038Z,1052.92
2022-11-05T10:53:38.060Z,1053.53
2022-11-05T10:54:38.037Z,1054.01
2022-11-05T10:55:38.040Z,1054.48
2022-11-05T10:56:38.040Z,1055.24
2022-11-05T10:57:38.044Z,1055.55
2022-11-05T10:58:38.075Z,1056.61
2022-11-05T10:59:38.049Z,1057.52
2022-11-05T11:00:38.195Z,1058.51
2022-11-05T11:01:38.244Z,1059.64
2022-11-05T11:02:38.127Z,1060.16
2022-11-05T11:03:38.075Z,1060.95
2022-11-05T11:04:38.414Z,1061.8
2022-11-05T11:05:38.056Z,1062.42
2022-11-05T11:06:38.058Z,1062.81
2022-11-05T11:07:38.058Z,1063.37
2022-11-05T11:08:38.083Z,1064.01
2022-11-05T11:09:38.063Z,1064.9
2022-11-05T11:10:38.068Z,1065.81
2022-11-05T11:11:38.070Z,1066.65
2022-11-05T11:12:40.791Z,1067.66
2022-11-05T11:13:38.090Z,1068.59
2022-11-05T11:14:38.076Z,1069.65
2022-11-05T11:15:38.074Z,1070.08
2022-11-05T11:16:38.072Z,1070.78
2022-11-05T11:17:38.090Z,1070.81
2022-11-05T11:18:40.149Z,1070.53
2022-11-05T11:19:38.080Z,1069.58
2022-11-05T11:20:38.105Z,1068.8
2022-11-05T11:21:38.084Z,1068.31
2022-11-05T11:22:38.085Z,1067.54
2022-11-05T11:23:38.114Z,1066.45
2022-11-05T11:24:38.087Z,1065.79
2022-11-05T11:25:38.093Z,1064.43
2022-11-05T11:26:38.099Z,1063.72
2022-11-05T11:27:38.096Z,1062.74
2022-11-05T11:28:38.115Z,1062.11
2022-11-05T11:29:38.095Z,1061.77
2022-11-05T11:30:38.099Z,1061.26
2022-11-05T11:31:38.100Z,1061.05
2022-11-05T11:32:38.101Z,1060.63
2022-11-05T11:33:38.133Z,1060.31
2022-11-05T11:34:38.243Z,1059.95
2022-11-05T11:35:38.108Z,1059.98
2022-11-05T11:36:38.223Z,1060.21
2022-11-05T11:37:38.112Z,1060.95
2022-11-05T11:38:38.136Z,1061.36
2022-11-05T11:39:38.117Z,1062.2
2022-11-05T11:40:38.114Z,1062.93
2022-11-05T11:41:38.118Z,1063.72
2022-11-05T11:42:38.120Z,1064.71
2022-11-05T11:43:38.145Z,1065.04
2022-11-05T11:44:38.121Z,1065.54
2022-11-05T11:45:40.964Z,1066.27
2022-11-05T11:46:38.124Z,1066.41
2022-11-05T11:47:38.125Z,1067.13
2022-11-05T11:48:38.147Z,1067.73
2022-11-05T11:49:38.135Z,1068.11
2022-11-05T11:50:38.132Z,1068.39
2022-11-05T11:51:38.136Z,1068.48
2022-11-05T11:52:38.170Z,1068.09
2022-11-05T11:53:38.163Z,1068.09
2022-11-05T11:54:38.142Z,1068.23
2022-11-05T11:55:38.142Z,1068.28
2022-11-05T11:56:41.260Z,1068.21
2022-11-05T11:57:38.155Z,1068
2022-11-05T11:58:38.203Z,1067.73
2022-11-05T12:00:06.969Z,1067.56
2022-11-05T12:00:38.156Z,1067.08
2022-11-05T12:01:38.226Z,1066.86
2022-11-05T12:02:38.224Z,1066.58
2022-11-05T12:03:38.174Z,1065.97
2022-11-05T12:04:38.157Z,1066
2022-11-05T12:05:38.158Z,1065.64
2022-11-05T12:06:38.167Z,1064.89
2022-11-05T12:07:41.223Z,1064.62
2022-11-05T12:08:40.547Z,1064.08
2022-11-05T12:09:38.165Z,1063.31
2022-11-05T12:10:38.169Z,1062.67
2022-11-05T12:11:38.174Z,1062.19
2022-11-05T12:12:38.170Z,1061.44
2022-11-05T12:13:38.195Z,1060.76
2022-11-05T12:14:41.211Z,1060.42
2022-11-05T12:15:38.177Z,1060.23
2022-11-05T12:16:38.176Z,1059.76
2022-11-05T12:17:38.187Z,1059.22
2022-11-05T12:18:41.490Z,1058.63
2022-11-05T12:19:38.183Z,1058.55
2022-11-05T12:20:38.185Z,1058.4
2022-11-05T12:21:51.782Z,1057.94
2022-11-05T12:22:38.186Z,1057.6
2022-11-05T12:23:38.210Z,1057.74
2022-11-05T12:24:38.214Z,1057.82
2022-11-05T12:25:38.191Z,1058.12
2022-11-05T12:26:38.192Z,1058.1
2022-11-05T12:27:38.336Z,1058.31
2022-11-05T12:28:51.841Z,1058.15